sensor_id;sensor_type;location;lat;lon;timestamp;P1;durP1;ratioP1;P2;durP2;ratioP2
50549;SDS011;36505;52.512;13.460;2022-10-31T00:01:28;42.03;;;21.85;;
50549;SDS011;36505;52.512;13.460;2022-10-31T00:03:55;37.10;;;21.58;;
50549;SDS011;36505;52.512;13.460;2022-10-31T00:06:21;42.97;;;22.20;;
50549;SDS011;36505;52.512;13.460;2022-10-31T00:08:51;41.33;;;22.02;;
50549;SDS011;36505;52.512;13.460;2022-10-31T00:11:18;44.28;;;24.80;;
50549;SDS011;36505;52.512;13.460;2022-10-31T00:13:44;43.65;;;22.40;;
50549;SDS011;36505;52.512;13.460;2022-10-31T00:16:13;45.83;;;23.13;;
50549;SDS011;36505;52.512;13.460;2022-10-31T00:18:42;44.92;;;21.10;;
50549;SDS011;36505;52.512;13.460;2022-10-31T00:21:08;38.08;;;21.88;;
50549;SDS011;36505;52.512;13.460;2022-10-31T00:23:33;41.47;;;22.73;;
50549;SDS011;36505;52.512;13.460;2022-10-31T00:26:02;40.22;;;22.40;;
50549;SDS011;36505;52.512;13.460;2022-10-31T00:28:29;35.67;;;21.50;;
50549;SDS011;36505;52.512;13.460;2022-10-31T00:30:57;43.60;;;22.50;;
50549;SDS011;36505;52.512;13.460;2022-10-31T00:33:24;44.13;;;20.85;;
50549;SDS011;36505;52.512;13.460;2022-10-31T00:35:50;49.03;;;22.08;;
50549;SDS011;36505;52.512;13.460;2022-10-31T00:38:15;38.05;;;20.77;;
50549;SDS011;36505;52.512;13.460;2022-10-31T00:40:41;44.63;;;25.75;;
50549;SDS011;36505;52.512;13.460;2022-10-31T00:43:06;40.25;;;22.02;;
50549;SDS011;36505;52.512;13.460;2022-10-31T00:45:31;42.53;;;21.85;;
50549;SDS011;36505;52.512;13.460;2022-10-31T00:47:57;40.42;;;21.73;;
50549;SDS011;36505;52.512;13.460;2022-10-31T00:50:22;36.80;;;20.98;;
50549;SDS011;36505;52.512;13.460;2022-10-31T00:52:47;41.78;;;22.70;;
50549;SDS011;36505;52.512;13.460;2022-10-31T00:55:13;45.33;;;22.98;;
50549;SDS011;36505;52.512;13.460;2022-10-31T00:57:38;44.70;;;22.00;;
50549;SDS011;36505;52.512;13.460;2022-10-31T01:00:03;43.70;;;21.48;;
50549;SDS011;36505;52.512;13.460;2022-10-31T01:02:29;43.97;;;23.30;;
50549;SDS011;36505;52.512;13.460;2022-10-31T01:04:54;44.65;;;24.77;;
50549;SDS011;36505;52.512;13.460;2022-10-31T01:07:20;45.70;;;26.45;;
50549;SDS011;36505;52.512;13.460;2022-10-31T01:09:45;39.83;;;21.48;;
50549;SDS011;36505;52.512;13.460;2022-10-31T01:12:10;49.35;;;25.95;;
50549;SDS011;36505;52.512;13.460;2022-10-31T01:14:36;40.97;;;23.10;;
50549;SDS011;36505;52.512;13.460;2022-10-31T01:17:01;37.30;;;21.27;;
50549;SDS011;36505;52.512;13.460;2022-10-31T01:19:27;49.92;;;27.40;;
50549;SDS011;36505;52.512;13.460;2022-10-31T01:21:53;39.63;;;24.25;;
50549;SDS011;36505;52.512;13.460;2022-10-31T01:24:20;41.60;;;23.73;;
50549;SDS011;36505;52.512;13.460;2022-10-31T01:26:45;44.03;;;22.05;;
50549;SDS011;36505;52.512;13.460;2022-10-31T01:29:10;35.75;;;21.73;;
50549;SDS011;36505;52.512;13.460;2022-10-31T01:31:37;38.92;;;20.58;;
50549;SDS011;36505;52.512;13.460;2022-10-31T01:34:04;41.30;;;20.38;;
50549;SDS011;36505;52.512;13.460;2022-10-31T01:36:35;39.00;;;21.63;;
50549;SDS011;36505;52.512;13.460;2022-10-31T01:39:03;44.13;;;22.27;;
50549;SDS011;36505;52.512;13.460;2022-10-31T01:41:32;42.63;;;22.85;;
50549;SDS011;36505;52.512;13.460;2022-10-31T01:44:03;47.78;;;26.83;;
50549;SDS011;36505;52.512;13.460;2022-10-31T01:49:13;38.80;;;20.30;;
50549;SDS011;36505;52.512;13.460;2022-10-31T01:51:45;36.08;;;19.98;;
50549;SDS011;36505;52.512;13.460;2022-10-31T01:54:15;40.10;;;19.98;;
50549;SDS011;36505;52.512;13.460;2022-10-31T01:56:44;34.95;;;18.50;;
50549;SDS011;36505;52.512;13.460;2022-10-31T01:59:15;41.72;;;21.08;;
50549;SDS011;36505;52.512;13.460;2022-10-31T02:01:43;40.90;;;20.70;;
50549;SDS011;36505;52.512;13.460;2022-10-31T02:04:09;36.83;;;20.08;;
50549;SDS011;36505;52.512;13.460;2022-10-31T02:06:38;29.85;;;17.30;;
50549;SDS011;36505;52.512;13.460;2022-10-31T02:09:11;33.15;;;17.98;;
50549;SDS011;36505;52.512;13.460;2022-10-31T02:11:38;37.58;;;18.00;;
50549;SDS011;36505;52.512;13.460;2022-10-31T02:14:05;33.42;;;16.50;;
50549;SDS011;36505;52.512;13.460;2022-10-31T02:16:31;28.20;;;16.60;;
50549;SDS011;36505;52.512;13.460;2022-10-31T02:18:56;34.90;;;16.88;;
50549;SDS011;36505;52.512;13.460;2022-10-31T02:27:01;32.08;;;16.67;;
50549;SDS011;36505;52.512;13.460;2022-10-31T02:32:36;30.60;;;16.27;;
50549;SDS011;36505;52.512;13.460;2022-10-31T02:37:47;32.40;;;14.80;;
50549;SDS011;36505;52.512;13.460;2022-10-31T02:45:43;27.30;;;15.13;;
50549;SDS011;36505;52.512;13.460;2022-10-31T02:48:27;39.75;;;16.13;;
50549;SDS011;36505;52.512;13.460;2022-10-31T02:50:56;30.25;;;15.25;;
50549;SDS011;36505;52.512;13.460;2022-10-31T02:53:24;32.60;;;16.85;;
50549;SDS011;36505;52.512;13.460;2022-10-31T02:58:32;32.75;;;16.23;;
50549;SDS011;36505;52.512;13.460;2022-10-31T03:06:14;31.88;;;16.63;;
50549;SDS011;36505;52.512;13.460;2022-10-31T03:08:55;32.05;;;14.95;;
50549;SDS011;36505;52.512;13.460;2022-10-31T03:11:32;34.58;;;15.20;;
50549;SDS011;36505;52.512;13.460;2022-10-31T03:14:26;33.75;;;15.57;;
50549;SDS011;36505;52.512;13.460;2022-10-31T03:17:17;33.92;;;15.98;;
50549;SDS011;36505;52.512;13.460;2022-10-31T03:19:51;34.03;;;15.50;;
50549;SDS011;36505;52.512;13.460;2022-10-31T03:22:20;31.40;;;14.77;;
50549;SDS011;36505;52.512;13.460;2022-10-31T03:24:47;31.58;;;16.92;;
50549;SDS011;36505;52.512;13.460;2022-10-31T03:27:17;32.88;;;15.55;;
50549;SDS011;36505;52.512;13.460;2022-10-31T03:29:47;34.60;;;14.60;;
50549;SDS011;36505;52.512;13.460;2022-10-31T03:32:16;26.30;;;15.98;;
50549;SDS011;36505;52.512;13.460;2022-10-31T03:34:48;27.63;;;14.45;;
50549;SDS011;36505;52.512;13.460;2022-10-31T03:37:16;25.90;;;15.02;;
50549;SDS011;36505;52.512;13.460;2022-10-31T03:39:44;28.27;;;14.02;;
50549;SDS011;36505;52.512;13.460;2022-10-31T03:42:15;26.33;;;13.88;;
50549;SDS011;36505;52.512;13.460;2022-10-31T03:44:48;27.10;;;14.57;;
50549;SDS011;36505;52.512;13.460;2022-10-31T03:47:18;27.88;;;13.75;;
50549;SDS011;36505;52.512;13.460;2022-10-31T03:49:43;23.10;;;13.57;;
50549;SDS011;36505;52.512;13.460;2022-10-31T03:52:15;28.50;;;14.23;;
50549;SDS011;36505;52.512;13.460;2022-10-31T03:54:44;24.23;;;13.48;;
50549;SDS011;36505;52.512;13.460;2022-10-31T03:57:15;27.40;;;12.57;;
50549;SDS011;36505;52.512;13.460;2022-10-31T03:59:54;23.40;;;14.15;;
50549;SDS011;36505;52.512;13.460;2022-10-31T04:02:28;26.08;;;12.85;;
50549;SDS011;36505;52.512;13.460;2022-10-31T04:04:57;25.52;;;13.38;;
50549;SDS011;36505;52.512;13.460;2022-10-31T04:07:23;27.15;;;12.98;;
50549;SDS011;36505;52.512;13.460;2022-10-31T04:09:53;31.38;;;13.00;;
50549;SDS011;36505;52.512;13.460;2022-10-31T04:12:18;26.95;;;13.40;;
50549;SDS011;36505;52.512;13.460;2022-10-31T04:14:48;29.67;;;12.70;;
50549;SDS011;36505;52.512;13.460;2022-10-31T04:17:16;29.17;;;12.90;;
50549;SDS011;36505;52.512;13.460;2022-10-31T04:19:43;24.98;;;11.32;;
50549;SDS011;36505;52.512;13.460;2022-10-31T04:22:09;25.70;;;12.75;;
50549;SDS011;36505;52.512;13.460;2022-10-31T04:24:35;19.40;;;11.45;;
50549;SDS011;36505;52.512;13.460;2022-10-31T04:27:03;23.95;;;11.55;;
50549;SDS011;36505;52.512;13.460;2022-10-31T04:29:28;35.33;;;12.20;;
50549;SDS011;36505;52.512;13.460;2022-10-31T04:31:53;26.40;;;12.30;;
50549;SDS011;36505;52.512;13.460;2022-10-31T04:34:19;32.58;;;11.52;;
50549;SDS011;36505;52.512;13.460;2022-10-31T04:36:45;23.77;;;12.02;;
50549;SDS011;36505;52.512;13.460;2022-10-31T04:39:10;25.88;;;10.93;;
50549;SDS011;36505;52.512;13.460;2022-10-31T04:41:35;22.98;;;11.32;;
50549;SDS011;36505;52.512;13.460;2022-10-31T04:44:01;26.85;;;11.18;;
50549;SDS011;36505;52.512;13.460;2022-10-31T04:46:26;25.15;;;11.50;;
50549;SDS011;36505;52.512;13.460;2022-10-31T04:48:51;22.45;;;11.32;;
50549;SDS011;36505;52.512;13.460;2022-10-31T04:51:16;22.73;;;11.30;;
50549;SDS011;36505;52.512;13.460;2022-10-31T04:53:42;18.17;;;11.15;;
50549;SDS011;36505;52.512;13.460;2022-10-31T04:56:07;17.75;;;10.82;;
50549;SDS011;36505;52.512;13.460;2022-10-31T04:58:32;28.58;;;10.63;;
50549;SDS011;36505;52.512;13.460;2022-10-31T05:00:58;24.52;;;10.38;;
50549;SDS011;36505;52.512;13.460;2022-10-31T05:03:23;20.52;;;10.20;;
50549;SDS011;36505;52.512;13.460;2022-10-31T05:05:49;24.60;;;10.80;;
50549;SDS011;36505;52.512;13.460;2022-10-31T05:08:14;24.55;;;11.30;;
50549;SDS011;36505;52.512;13.460;2022-10-31T05:10:39;20.63;;;10.60;;
50549;SDS011;36505;52.512;13.460;2022-10-31T05:13:05;23.63;;;11.52;;
50549;SDS011;36505;52.512;13.460;2022-10-31T05:15:31;21.20;;;11.25;;
50549;SDS011;36505;52.512;13.460;2022-10-31T05:17:57;23.15;;;11.82;;
50549;SDS011;36505;52.512;13.460;2022-10-31T05:20:26;25.13;;;10.85;;
50549;SDS011;36505;52.512;13.460;2022-10-31T05:22:53;28.58;;;10.85;;
50549;SDS011;36505;52.512;13.460;2022-10-31T05:25:21;23.10;;;10.98;;
50549;SDS011;36505;52.512;13.460;2022-10-31T05:27:48;25.88;;;10.85;;
50549;SDS011;36505;52.512;13.460;2022-10-31T05:30:18;27.70;;;11.52;;
50549;SDS011;36505;52.512;13.460;2022-10-31T05:32:49;25.45;;;12.48;;
50549;SDS011;36505;52.512;13.460;2022-10-31T05:35:17;27.20;;;12.00;;
50549;SDS011;36505;52.512;13.460;2022-10-31T05:37:44;27.08;;;12.00;;
50549;SDS011;36505;52.512;13.460;2022-10-31T05:40:10;23.45;;;11.43;;
50549;SDS011;36505;52.512;13.460;2022-10-31T05:42:41;20.95;;;12.63;;
50549;SDS011;36505;52.512;13.460;2022-10-31T05:45:11;25.63;;;11.73;;
50549;SDS011;36505;52.512;13.460;2022-10-31T05:47:38;29.50;;;13.35;;
50549;SDS011;36505;52.512;13.460;2022-10-31T05:50:04;29.10;;;13.38;;
50549;SDS011;36505;52.512;13.460;2022-10-31T05:52:29;20.27;;;11.70;;
50549;SDS011;36505;52.512;13.460;2022-10-31T05:54:55;25.08;;;11.82;;
50549;SDS011;36505;52.512;13.460;2022-10-31T05:57:20;22.15;;;12.43;;
50549;SDS011;36505;52.512;13.460;2022-10-31T05:59:45;32.97;;;13.35;;
50549;SDS011;36505;52.512;13.460;2022-10-31T06:02:11;23.70;;;13.45;;
50549;SDS011;36505;52.512;13.460;2022-10-31T06:04:36;32.38;;;17.90;;
50549;SDS011;36505;52.512;13.460;2022-10-31T06:07:01;25.48;;;15.30;;
50549;SDS011;36505;52.512;13.460;2022-10-31T06:09:27;34.38;;;17.55;;
50549;SDS011;36505;52.512;13.460;2022-10-31T06:11:52;30.23;;;13.02;;
50549;SDS011;36505;52.512;13.460;2022-10-31T06:14:17;25.67;;;11.70;;
50549;SDS011;36505;52.512;13.460;2022-10-31T06:16:43;32.35;;;12.65;;
50549;SDS011;36505;52.512;13.460;2022-10-31T06:19:08;34.42;;;19.02;;
50549;SDS011;36505;52.512;13.460;2022-10-31T06:21:33;26.08;;;14.35;;
50549;SDS011;36505;52.512;13.460;2022-10-31T06:23:59;25.27;;;11.93;;
50549;SDS011;36505;52.512;13.460;2022-10-31T06:26:24;24.60;;;12.75;;
50549;SDS011;36505;52.512;13.460;2022-10-31T06:28:49;31.02;;;13.63;;
50549;SDS011;36505;52.512;13.460;2022-10-31T06:31:15;25.98;;;13.07;;
50549;SDS011;36505;52.512;13.460;2022-10-31T06:33:40;26.85;;;12.70;;
50549;SDS011;36505;52.512;13.460;2022-10-31T06:36:06;25.13;;;12.77;;
50549;SDS011;36505;52.512;13.460;2022-10-31T06:38:32;26.25;;;13.15;;
50549;SDS011;36505;52.512;13.460;2022-10-31T06:40:57;23.15;;;12.02;;
50549;SDS011;36505;52.512;13.460;2022-10-31T06:43:22;23.75;;;12.50;;
50549;SDS011;36505;52.512;13.460;2022-10-31T06:45:48;27.02;;;12.50;;
50549;SDS011;36505;52.512;13.460;2022-10-31T06:48:13;22.38;;;12.25;;
50549;SDS011;36505;52.512;13.460;2022-10-31T06:50:39;23.13;;;11.43;;
50549;SDS011;36505;52.512;13.460;2022-10-31T06:53:04;28.98;;;12.73;;
50549;SDS011;36505;52.512;13.460;2022-10-31T06:55:30;34.00;;;13.32;;
50549;SDS011;36505;52.512;13.460;2022-10-31T06:57:56;25.08;;;12.40;;
50549;SDS011;36505;52.512;13.460;2022-10-31T07:00:26;26.77;;;12.88;;
50549;SDS011;36505;52.512;13.460;2022-10-31T07:03:00;22.13;;;12.18;;
50549;SDS011;36505;52.512;13.460;2022-10-31T07:05:28;21.38;;;12.32;;
50549;SDS011;36505;52.512;13.460;2022-10-31T07:07:54;25.10;;;12.40;;
50549;SDS011;36505;52.512;13.460;2022-10-31T07:10:24;20.23;;;11.38;;
50549;SDS011;36505;52.512;13.460;2022-10-31T07:12:54;32.83;;;12.95;;
50549;SDS011;36505;52.512;13.460;2022-10-31T07:15:21;24.40;;;12.18;;
50549;SDS011;36505;52.512;13.460;2022-10-31T07:17:46;24.92;;;12.02;;
50549;SDS011;36505;52.512;13.460;2022-10-31T07:20:12;26.15;;;12.25;;
50549;SDS011;36505;52.512;13.460;2022-10-31T07:22:37;20.02;;;11.05;;
50549;SDS011;36505;52.512;13.460;2022-10-31T07:25:02;24.65;;;12.70;;
50549;SDS011;36505;52.512;13.460;2022-10-31T07:27:28;29.55;;;12.73;;
50549;SDS011;36505;52.512;13.460;2022-10-31T07:29:53;28.17;;;12.23;;
50549;SDS011;36505;52.512;13.460;2022-10-31T07:32:19;25.23;;;12.05;;
50549;SDS011;36505;52.512;13.460;2022-10-31T07:34:44;29.33;;;13.13;;
50549;SDS011;36505;52.512;13.460;2022-10-31T07:37:09;25.73;;;11.15;;
50549;SDS011;36505;52.512;13.460;2022-10-31T07:39:34;22.98;;;11.55;;
50549;SDS011;36505;52.512;13.460;2022-10-31T07:42:00;29.95;;;12.55;;
50549;SDS011;36505;52.512;13.460;2022-10-31T07:44:25;32.30;;;11.82;;
50549;SDS011;36505;52.512;13.460;2022-10-31T07:46:50;31.92;;;12.05;;
50549;SDS011;36505;52.512;13.460;2022-10-31T07:49:16;31.23;;;12.10;;
50549;SDS011;36505;52.512;13.460;2022-10-31T07:51:41;26.25;;;11.32;;
50549;SDS011;36505;52.512;13.460;2022-10-31T07:54:06;25.80;;;11.75;;
50549;SDS011;36505;52.512;13.460;2022-10-31T07:56:32;32.78;;;13.70;;
50549;SDS011;36505;52.512;13.460;2022-10-31T07:58:57;30.00;;;13.15;;
50549;SDS011;36505;52.512;13.460;2022-10-31T08:01:22;33.70;;;13.25;;
50549;SDS011;36505;52.512;13.460;2022-10-31T08:03:48;33.28;;;13.57;;
50549;SDS011;36505;52.512;13.460;2022-10-31T08:06:13;32.20;;;12.00;;
50549;SDS011;36505;52.512;13.460;2022-10-31T08:08:38;22.10;;;12.10;;
50549;SDS011;36505;52.512;13.460;2022-10-31T08:11:03;21.77;;;11.40;;
50549;SDS011;36505;52.512;13.460;2022-10-31T08:13:29;28.83;;;11.82;;
50549;SDS011;36505;52.512;13.460;2022-10-31T08:15:54;22.77;;;12.07;;
50549;SDS011;36505;52.512;13.460;2022-10-31T08:18:20;24.75;;;12.23;;
50549;SDS011;36505;52.512;13.460;2022-10-31T08:20:48;23.20;;;11.77;;
50549;SDS011;36505;52.512;13.460;2022-10-31T08:23:14;20.63;;;11.70;;
50549;SDS011;36505;52.512;13.460;2022-10-31T08:25:39;26.80;;;12.32;;
50549;SDS011;36505;52.512;13.460;2022-10-31T08:28:05;24.95;;;11.60;;
50549;SDS011;36505;52.512;13.460;2022-10-31T08:30:32;27.60;;;12.95;;
50549;SDS011;36505;52.512;13.460;2022-10-31T08:33:00;27.63;;;12.75;;
50549;SDS011;36505;52.512;13.460;2022-10-31T08:35:31;30.52;;;12.60;;
50549;SDS011;36505;52.512;13.460;2022-10-31T08:37:57;27.05;;;12.13;;
50549;SDS011;36505;52.512;13.460;2022-10-31T08:40:23;27.88;;;11.70;;
50549;SDS011;36505;52.512;13.460;2022-10-31T08:43:01;22.27;;;11.57;;
50549;SDS011;36505;52.512;13.460;2022-10-31T08:45:28;21.95;;;12.00;;
50549;SDS011;36505;52.512;13.460;2022-10-31T08:48:01;24.10;;;12.40;;
50549;SDS011;36505;52.512;13.460;2022-10-31T08:50:32;29.48;;;14.20;;
50549;SDS011;36505;52.512;13.460;2022-10-31T08:53:03;28.67;;;11.95;;
50549;SDS011;36505;52.512;13.460;2022-10-31T08:55:39;28.20;;;11.77;;
50549;SDS011;36505;52.512;13.460;2022-10-31T08:58:06;24.88;;;12.40;;
50549;SDS011;36505;52.512;13.460;2022-10-31T09:00:35;26.15;;;12.52;;
50549;SDS011;36505;52.512;13.460;2022-10-31T09:03:01;22.15;;;12.02;;
50549;SDS011;36505;52.512;13.460;2022-10-31T09:05:31;30.95;;;14.20;;
50549;SDS011;36505;52.512;13.460;2022-10-31T09:07:58;29.88;;;13.60;;
50549;SDS011;36505;52.512;13.460;2022-10-31T09:10:25;27.48;;;11.93;;
50549;SDS011;36505;52.512;13.460;2022-10-31T09:12:55;33.47;;;13.15;;
50549;SDS011;36505;52.512;13.460;2022-10-31T09:15:24;24.05;;;13.43;;
50549;SDS011;36505;52.512;13.460;2022-10-31T09:17:50;20.05;;;12.70;;
50549;SDS011;36505;52.512;13.460;2022-10-31T09:20:16;23.52;;;13.05;;
50549;SDS011;36505;52.512;13.460;2022-10-31T09:22:41;27.77;;;13.48;;
50549;SDS011;36505;52.512;13.460;2022-10-31T09:25:07;31.85;;;15.10;;
50549;SDS011;36505;52.512;13.460;2022-10-31T09:27:32;24.98;;;13.10;;
50549;SDS011;36505;52.512;13.460;2022-10-31T09:29:58;29.05;;;13.27;;
50549;SDS011;36505;52.512;13.460;2022-10-31T09:32:23;29.70;;;15.02;;
50549;SDS011;36505;52.512;13.460;2022-10-31T09:34:48;28.40;;;13.57;;
50549;SDS011;36505;52.512;13.460;2022-10-31T09:37:14;25.63;;;12.55;;
50549;SDS011;36505;52.512;13.460;2022-10-31T09:39:39;27.42;;;13.20;;
50549;SDS011;36505;52.512;13.460;2022-10-31T09:44:55;35.38;;;13.45;;
50549;SDS011;36505;52.512;13.460;2022-10-31T09:52:58;35.78;;;14.05;;
50549;SDS011;36505;52.512;13.460;2022-10-31T09:55:29;29.60;;;14.90;;
50549;SDS011;36505;52.512;13.460;2022-10-31T09:58:00;30.80;;;14.45;;
50549;SDS011;36505;52.512;13.460;2022-10-31T10:00:26;30.63;;;14.23;;
50549;SDS011;36505;52.512;13.460;2022-10-31T10:05:46;39.28;;;17.35;;
50549;SDS011;36505;52.512;13.460;2022-10-31T10:08:20;40.67;;;17.30;;
50549;SDS011;36505;52.512;13.460;2022-10-31T10:32:24;45.22;;;21.63;;
50549;SDS011;36505;52.512;13.460;2022-10-31T10:40:51;31.73;;;18.38;;
50549;SDS011;36505;52.512;13.460;2022-10-31T10:45:44;38.35;;;19.13;;
50549;SDS011;36505;52.512;13.460;2022-10-31T10:48:53;34.63;;;17.10;;
50549;SDS011;36505;52.512;13.460;2022-10-31T10:56:51;38.17;;;19.00;;
50549;SDS011;36505;52.512;13.460;2022-10-31T10:59:20;40.13;;;17.80;;
50549;SDS011;36505;52.512;13.460;2022-10-31T11:01:48;43.42;;;18.20;;
50549;SDS011;36505;52.512;13.460;2022-10-31T11:07:07;38.05;;;18.95;;
50549;SDS011;36505;52.512;13.460;2022-10-31T11:09:34;30.15;;;16.60;;
50549;SDS011;36505;52.512;13.460;2022-10-31T11:12:05;34.95;;;16.70;;
50549;SDS011;36505;52.512;13.460;2022-10-31T11:14:35;38.28;;;17.65;;
50549;SDS011;36505;52.512;13.460;2022-10-31T11:17:10;41.88;;;18.45;;
50549;SDS011;36505;52.512;13.460;2022-10-31T11:19:46;34.85;;;17.55;;
50549;SDS011;36505;52.512;13.460;2022-10-31T11:22:16;36.80;;;17.15;;
50549;SDS011;36505;52.512;13.460;2022-10-31T11:24:42;37.22;;;17.73;;
50549;SDS011;36505;52.512;13.460;2022-10-31T11:27:21;44.50;;;18.33;;
50549;SDS011;36505;52.512;13.460;2022-10-31T11:29:49;36.25;;;17.02;;
50549;SDS011;36505;52.512;13.460;2022-10-31T11:32:33;33.25;;;16.95;;
50549;SDS011;36505;52.512;13.460;2022-10-31T11:35:00;40.67;;;19.17;;
50549;SDS011;36505;52.512;13.460;2022-10-31T11:37:34;35.63;;;18.88;;
50549;SDS011;36505;52.512;13.460;2022-10-31T11:42:38;47.30;;;21.17;;
50549;SDS011;36505;52.512;13.460;2022-10-31T11:45:07;38.78;;;18.52;;
50549;SDS011;36505;52.512;13.460;2022-10-31T11:47:41;54.45;;;25.10;;
50549;SDS011;36505;52.512;13.460;2022-10-31T11:50:20;43.25;;;22.05;;
50549;SDS011;36505;52.512;13.460;2022-10-31T11:52:56;47.25;;;22.38;;
50549;SDS011;36505;52.512;13.460;2022-10-31T11:55:34;42.95;;;22.27;;
50549;SDS011;36505;52.512;13.460;2022-10-31T11:58:02;40.13;;;20.48;;
50549;SDS011;36505;52.512;13.460;2022-10-31T12:05:41;46.08;;;21.25;;
50549;SDS011;36505;52.512;13.460;2022-10-31T12:08:09;47.53;;;21.67;;
50549;SDS011;36505;52.512;13.460;2022-10-31T12:10:41;43.00;;;21.50;;
50549;SDS011;36505;52.512;13.460;2022-10-31T12:13:33;41.78;;;21.58;;
50549;SDS011;36505;52.512;13.460;2022-10-31T12:16:08;53.47;;;29.90;;
50549;SDS011;36505;52.512;13.460;2022-10-31T12:18:37;45.58;;;22.88;;
50549;SDS011;36505;52.512;13.460;2022-10-31T12:27:04;45.95;;;20.40;;
50549;SDS011;36505;52.512;13.460;2022-10-31T12:37:35;46.80;;;19.63;;
50549;SDS011;36505;52.512;13.460;2022-10-31T12:51:44;48.28;;;21.50;;
50549;SDS011;36505;52.512;13.460;2022-10-31T12:57:22;43.47;;;20.48;;
50549;SDS011;36505;52.512;13.460;2022-10-31T13:05:37;39.30;;;19.88;;
50549;SDS011;36505;52.512;13.460;2022-10-31T13:08:18;36.78;;;21.45;;
50549;SDS011;36505;52.512;13.460;2022-10-31T13:11:08;43.53;;;18.55;;
50549;SDS011;36505;52.512;13.460;2022-10-31T13:13:40;49.60;;;21.52;;
50549;SDS011;36505;52.512;13.460;2022-10-31T13:16:11;39.13;;;19.17;;
50549;SDS011;36505;52.512;13.460;2022-10-31T13:21:20;39.20;;;19.80;;
50549;SDS011;36505;52.512;13.460;2022-10-31T13:23:49;40.55;;;19.65;;
50549;SDS011;36505;52.512;13.460;2022-10-31T13:26:38;40.70;;;20.13;;
50549;SDS011;36505;52.512;13.460;2022-10-31T13:31:52;40.45;;;21.33;;
50549;SDS011;36505;52.512;13.460;2022-10-31T13:34:29;44.75;;;21.55;;
50549;SDS011;36505;52.512;13.460;2022-10-31T13:37:04;45.20;;;25.00;;
50549;SDS011;36505;52.512;13.460;2022-10-31T13:45:20;55.88;;;22.90;;
50549;SDS011;36505;52.512;13.460;2022-10-31T13:47:57;44.95;;;21.25;;
50549;SDS011;36505;52.512;13.460;2022-10-31T13:50:29;43.85;;;22.58;;
50549;SDS011;36505;52.512;13.460;2022-10-31T13:53:12;40.83;;;21.63;;
50549;SDS011;36505;52.512;13.460;2022-10-31T13:55:44;40.33;;;21.08;;
50549;SDS011;36505;52.512;13.460;2022-10-31T14:00:58;45.78;;;20.08;;
50549;SDS011;36505;52.512;13.460;2022-10-31T14:03:35;54.45;;;26.70;;
50549;SDS011;36505;52.512;13.460;2022-10-31T14:06:02;48.40;;;24.00;;
50549;SDS011;36505;52.512;13.460;2022-10-31T14:08:28;37.97;;;20.75;;
50549;SDS011;36505;52.512;13.460;2022-10-31T14:10:59;46.15;;;20.98;;
50549;SDS011;36505;52.512;13.460;2022-10-31T14:13:32;45.75;;;21.85;;
50549;SDS011;36505;52.512;13.460;2022-10-31T14:16:01;52.25;;;20.08;;
50549;SDS011;36505;52.512;13.460;2022-10-31T14:18:31;42.35;;;21.25;;
50549;SDS011;36505;52.512;13.460;2022-10-31T14:20:58;46.53;;;20.60;;
50549;SDS011;36505;52.512;13.460;2022-10-31T14:28:42;41.90;;;21.45;;
50549;SDS011;36505;52.512;13.460;2022-10-31T14:33:56;42.50;;;22.02;;
50549;SDS011;36505;52.512;13.460;2022-10-31T14:36:26;42.88;;;19.52;;
50549;SDS011;36505;52.512;13.460;2022-10-31T14:39:02;40.35;;;20.58;;
50549;SDS011;36505;52.512;13.460;2022-10-31T14:41:40;52.58;;;24.48;;
50549;SDS011;36505;52.512;13.460;2022-10-31T14:44:38;54.22;;;26.10;;
50549;SDS011;36505;52.512;13.460;2022-10-31T14:47:24;56.63;;;23.92;;
50549;SDS011;36505;52.512;13.460;2022-10-31T14:52:56;45.78;;;25.45;;
50549;SDS011;36505;52.512;13.460;2022-10-31T14:55:22;47.88;;;21.95;;
50549;SDS011;36505;52.512;13.460;2022-10-31T14:57:50;49.92;;;24.73;;
50549;SDS011;36505;52.512;13.460;2022-10-31T15:00:20;45.58;;;24.08;;
50549;SDS011;36505;52.512;13.460;2022-10-31T15:02:49;47.40;;;22.73;;
50549;SDS011;36505;52.512;13.460;2022-10-31T15:05:35;41.70;;;23.08;;
50549;SDS011;36505;52.512;13.460;2022-10-31T15:08:26;50.17;;;25.45;;
50549;SDS011;36505;52.512;13.460;2022-10-31T15:10:55;48.53;;;23.95;;
50549;SDS011;36505;52.512;13.460;2022-10-31T15:13:21;43.70;;;24.35;;
50549;SDS011;36505;52.512;13.460;2022-10-31T15:15:47;47.70;;;25.00;;
50549;SDS011;36505;52.512;13.460;2022-10-31T15:18:16;46.15;;;23.88;;
50549;SDS011;36505;52.512;13.460;2022-10-31T15:20:44;54.50;;;25.60;;
50549;SDS011;36505;52.512;13.460;2022-10-31T15:23:20;48.38;;;25.10;;
50549;SDS011;36505;52.512;13.460;2022-10-31T15:25:48;50.97;;;24.23;;
50549;SDS011;36505;52.512;13.460;2022-10-31T15:28:14;56.20;;;26.98;;
50549;SDS011;36505;52.512;13.460;2022-10-31T15:30:49;54.08;;;29.02;;
50549;SDS011;36505;52.512;13.460;2022-10-31T15:33:19;55.92;;;27.67;;
50549;SDS011;36505;52.512;13.460;2022-10-31T15:36:01;58.70;;;27.48;;
50549;SDS011;36505;52.512;13.460;2022-10-31T15:38:27;61.53;;;28.13;;
50549;SDS011;36505;52.512;13.460;2022-10-31T15:41:03;45.88;;;25.80;;
50549;SDS011;36505;52.512;13.460;2022-10-31T15:43:44;48.97;;;26.88;;
50549;SDS011;36505;52.512;13.460;2022-10-31T15:46:10;55.33;;;27.45;;
50549;SDS011;36505;52.512;13.460;2022-10-31T15:48:35;45.08;;;25.58;;
50549;SDS011;36505;52.512;13.460;2022-10-31T15:51:03;56.97;;;26.15;;
50549;SDS011;36505;52.512;13.460;2022-10-31T15:56:02;53.60;;;27.83;;
50549;SDS011;36505;52.512;13.460;2022-10-31T15:58:40;51.47;;;25.40;;
50549;SDS011;36505;52.512;13.460;2022-10-31T16:06:35;59.65;;;31.50;;
50549;SDS011;36505;52.512;13.460;2022-10-31T16:09:01;53.75;;;29.40;;
50549;SDS011;36505;52.512;13.460;2022-10-31T16:11:35;52.13;;;28.58;;
50549;SDS011;36505;52.512;13.460;2022-10-31T16:16:30;58.45;;;28.20;;
50549;SDS011;36505;52.512;13.460;2022-10-31T16:18:57;52.85;;;28.08;;
50549;SDS011;36505;52.512;13.460;2022-10-31T16:21:29;57.65;;;26.95;;
50549;SDS011;36505;52.512;13.460;2022-10-31T16:24:05;58.25;;;29.73;;
50549;SDS011;36505;52.512;13.460;2022-10-31T16:26:40;54.50;;;27.58;;
50549;SDS011;36505;52.512;13.460;2022-10-31T16:29:22;66.03;;;30.52;;
50549;SDS011;36505;52.512;13.460;2022-10-31T16:31:53;55.95;;;30.35;;
50549;SDS011;36505;52.512;13.460;2022-10-31T16:34:22;59.00;;;30.10;;
50549;SDS011;36505;52.512;13.460;2022-10-31T16:36:47;56.17;;;29.00;;
50549;SDS011;36505;52.512;13.460;2022-10-31T16:39:13;55.30;;;30.83;;
50549;SDS011;36505;52.512;13.460;2022-10-31T16:41:42;62.75;;;29.40;;
50549;SDS011;36505;52.512;13.460;2022-10-31T16:44:17;64.43;;;30.05;;
50549;SDS011;36505;52.512;13.460;2022-10-31T16:46:42;53.97;;;29.33;;
50549;SDS011;36505;52.512;13.460;2022-10-31T16:49:08;65.05;;;29.98;;
50549;SDS011;36505;52.512;13.460;2022-10-31T16:51:34;55.67;;;29.92;;
50549;SDS011;36505;52.512;13.460;2022-10-31T16:54:00;66.70;;;31.95;;